Time;durP1;ratioP1;P1;durP2;ratioP2;P2;SDS_P1;SDS_P2;PMS_P1;PMS_P2;Temp;Humidity;BMP_temperature;BMP_pressure;BME280_temperature;BME280_humidity;BME280_pressure;Samples;Min_cycle;Max_cycle;Signal;HPM_P1;HPM_P2
2021/12/06 00:01:58;;;;;;;4.93;2.70;;;20.00;52.90;;;;;;5013964;28;20076;-62
2021/12/06 00:04:26;;;;;;;4.88;2.97;;;20.00;52.90;;;;;;5014683;28;20046;-61
2021/12/06 00:06:53;;;;;;;;;;;20.00;52.90;;;;;;5015117;28;20046;-61
2021/12/06 00:09:20;;;;;;;4.50;2.42;;;19.90;52.80;;;;;;5015564;28;19928;-61
2021/12/06 00:11:46;;;;;;;3.75;2.45;;;19.90;52.90;;;;;;5013615;28;20454;-61
2021/12/06 00:14:12;;;;;;;4.72;2.75;;;19.90;52.80;;;;;;5014494;28;20088;-61
2021/12/06 00:16:37;;;;;;;4.43;2.92;;;19.90;52.80;;;;;;5015286;28;20172;-62
2021/12/06 00:19:03;;;;;;;4.13;2.70;;;19.90;52.70;;;;;;5013809;28;20437;-61
2021/12/06 00:21:29;;;;;;;4.90;2.72;;;19.90;52.60;;;;;;5014771;28;20049;-62
2021/12/06 00:23:55;;;;;;;3.97;2.47;;;19.90;52.60;;;;;;5013582;28;20405;-62
2021/12/06 00:26:20;;;;;;;5.35;2.90;;;19.80;52.60;;;;;;5015134;28;20125;-63
2021/12/06 00:28:46;;;;;;;3.80;2.60;;;19.80;52.50;;;;;;5012853;28;20562;-63
2021/12/06 00:31:12;;;;;;;3.45;2.67;;;19.80;52.50;;;;;;5013552;28;20038;-63
2021/12/06 00:33:38;;;;;;;3.95;2.53;;;19.80;52.40;;;;;;5014944;28;20057;-63
2021/12/06 00:36:06;;;;;;;5.25;2.92;;;19.80;52.40;;;;;;5013957;28;20042;-62
2021/12/06 00:38:32;;;;;;;3.70;2.60;;;19.80;52.40;;;;;;5014871;28;20050;-62
2021/12/06 00:40:58;;;;;;;3.88;2.58;;;19.80;52.40;;;;;;5013047;28;20049;-63
2021/12/06 00:43:23;;;;;;;4.82;3.03;;;19.80;52.40;;;;;;5014385;28;20042;-63
2021/12/06 00:45:49;;;;;;;4.32;2.92;;;19.80;52.30;;;;;;5013879;28;20042;-63
2021/12/06 00:48:15;;;;;;;4.45;2.92;;;19.80;52.30;;;;;;5014129;28;20046;-62
2021/12/06 00:50:43;;;;;;;4.88;2.85;;;19.70;52.20;;;;;;5014611;28;20038;-63
2021/12/06 00:53:08;;;;;;;3.75;2.70;;;19.70;52.30;;;;;;5013301;28;20120;-62
2021/12/06 00:55:34;;;;;;;3.80;2.67;;;19.70;52.20;;;;;;5012832;28;20137;-63
2021/12/06 00:58:00;;;;;;;4.97;3.05;;;19.70;52.20;;;;;;5014491;28;20046;-63
2021/12/06 01:00:29;;;;;;;4.95;3.00;;;19.70;52.20;;;;;;5013982;28;20050;-62
2021/12/06 01:02:55;;;;;;;5.15;3.03;;;19.70;52.20;;;;;;5013570;28;20092;-62
2021/12/06 01:05:23;;;;;;;5.72;3.00;;;19.70;52.20;;;;;;5014574;28;20037;-63
2021/12/06 01:07:50;;;;;;;5.27;3.37;;;19.70;52.20;;;;;;5014118;28;20042;-62
2021/12/06 01:10:15;;;;;;;4.47;2.85;;;19.60;52.20;;;;;;5012707;28;20739;-63
2021/12/06 01:12:41;;;;;;;4.43;2.95;;;19.70;52.20;;;;;;5013753;28;20085;-62
2021/12/06 01:15:07;;;;;;;4.50;2.80;;;19.60;52.10;;;;;;5014225;28;20104;-62
2021/12/06 01:17:33;;;;;;;5.57;2.90;;;19.60;52.10;;;;;;5013639;28;20089;-62
2021/12/06 01:19:58;;;;;;;4.30;2.97;;;19.60;52.10;;;;;;5012483;28;20121;-62
2021/12/06 01:22:41;;;;;;;5.45;3.75;;;19.60;52.00;;;;;;5014267;28;20120;-63
2021/12/06 01:25:18;;;;;;;5.22;3.33;;;19.60;52.10;;;;;;5013490;28;20049;-63
2021/12/06 01:28:17;;;;;;;5.37;3.00;;;19.60;52.10;;;;;;5012663;28;20482;-63
2021/12/06 01:30:51;;;;;;;4.80;3.05;;;19.60;52.10;;;;;;5012526;28;20589;-63
2021/12/06 01:33:37;;;;;;;5.43;3.45;;;19.60;52.10;;;;;;5013891;28;20095;-63
2021/12/06 01:41:32;;;;;;;4.70;3.03;;;19.60;52.90;;;;;;5013915;28;20057;-62
2021/12/06 01:44:11;;;;;;;4.68;3.10;;;19.50;52.10;;;;;;5012233;28;20132;-62
2021/12/06 01:46:39;;;;;;;4.40;2.88;;;19.50;52.10;;;;;;5013019;28;20042;-62
2021/12/06 01:49:05;;;;;;;4.85;3.20;;;19.50;52.20;;;;;;5012082;28;20477;-62
2021/12/06 01:51:31;;;;;;;4.60;3.13;;;19.50;52.20;;;;;;5011516;28;20078;-62
2021/12/06 01:53:57;;;;;;;4.43;3.15;;;19.50;52.10;;;;;;5011971;28;20067;-62
2021/12/06 01:56:22;;;;;;;5.28;3.38;;;19.50;52.10;;;;;;5013425;28;20137;-62
2021/12/06 01:58:48;;;;;;;4.50;2.85;;;19.50;52.10;;;;;;5012457;28;20042;-62
2021/12/06 02:01:14;;;;;;;5.38;3.22;;;19.50;52.00;;;;;;5013297;28;20053;-62
2021/12/06 02:03:39;;;;;;;4.80;3.25;;;19.50;52.10;;;;;;5011800;28;20451;-62
2021/12/06 02:06:05;;;;;;;4.68;3.10;;;19.50;52.10;;;;;;5010863;28;20050;-62
2021/12/06 02:08:30;;;;;;;5.05;3.30;;;19.50;52.00;;;;;;5013508;28;20041;-62
2021/12/06 02:11:01;;;;;;;5.40;3.55;;;19.50;52.10;;;;;;5012783;28;20489;-62
2021/12/06 02:13:34;;;;;;;4.57;3.17;;;19.50;52.10;;;;;;5012567;28;20057;-62
2021/12/06 02:16:02;;;;;;;5.20;3.47;;;19.50;52.00;;;;;;5011832;28;20288;-62
2021/12/06 02:21:31;;;;;;;4.60;3.30;;;19.50;52.00;;;;;;5012231;28;20069;-62
2021/12/06 02:23:58;;;;;;;5.47;3.40;;;19.50;52.00;;;;;;5013033;28;20034;-62
2021/12/06 02:26:23;;;;;;;5.32;3.53;;;19.50;52.00;;;;;;5011915;28;20054;-63
2021/12/06 02:28:49;;;;;;;5.45;3.50;;;19.50;52.00;;;;;;5011834;28;20042;-63
2021/12/06 02:31:15;;;;;;;4.85;3.05;;;19.50;52.00;;;;;;5013092;28;20505;-60
2021/12/06 02:33:41;;;;;;;5.18;3.25;;;19.50;51.90;;;;;;5010730;28;20046;-60
2021/12/06 02:36:06;;;;;;;4.88;3.38;;;19.50;51.90;;;;;;5011798;28;20371;-60
2021/12/06 02:38:32;;;;;;;5.75;3.40;;;19.50;51.90;;;;;;5013015;28;20057;-60
2021/12/06 02:40:58;;;;;;;4.25;3.10;;;19.50;51.80;;;;;;5010608;28;20045;-60
2021/12/06 02:43:23;;;;;;;5.05;3.40;;;19.50;51.80;;;;;;5012937;28;20399;-60
2021/12/06 02:45:49;;;;;;;5.22;3.70;;;19.60;51.90;;;;;;5012540;28;20041;-60
2021/12/06 02:48:15;;;;;;;5.18;3.47;;;19.60;51.80;;;;;;5010974;28;20125;-60
2021/12/06 02:50:48;;;;;;;5.95;3.60;;;19.60;51.80;;;;;;5012628;28;20037;-60
2021/12/06 02:53:14;;;;;;;5.53;3.63;;;19.60;51.80;;;;;;5012730;28;20100;-60
2021/12/06 02:55:41;;;;;;;5.72;3.80;;;19.60;51.80;;;;;;5012179;28;20081;-60
2021/12/06 02:58:33;;;;;;;5.43;3.73;;;19.60;51.70;;;;;;5012834;28;20078;-60
2021/12/06 03:00:58;;;;;;;5.53;3.70;;;19.60;52.40;;;;;;5010292;28;20467;-60
2021/12/06 03:03:24;;;;;;;6.22;4.25;;;19.60;51.70;;;;;;5011086;28;20085;-62
2021/12/06 03:05:50;;;;;;;6.10;3.88;;;19.60;51.70;;;;;;5010928;28;20112;-61
2021/12/06 03:08:34;;;;;;;4.50;3.40;;;19.60;51.70;;;;;;5011770;28;20046;-60
2021/12/06 03:10:59;;;;;;;5.55;3.88;;;19.60;51.70;;;;;;5011289;28;20521;-60
2021/12/06 03:13:25;;;;;;;5.68;3.75;;;19.60;51.60;;;;;;5011180;28;20053;-60
2021/12/06 03:15:50;;;;;;;7.13;3.92;;;19.70;51.70;;;;;;5010124;28;20089;-60
2021/12/06 03:18:16;;;;;;;6.32;3.85;;;19.70;51.60;;;;;;5012750;28;20056;-60
2021/12/06 03:20:41;;;;;;;5.30;3.97;;;19.70;51.60;;;;;;5012409;28;20038;-60
2021/12/06 03:23:07;;;;;;;5.63;4.10;;;19.70;51.60;;;;;;5011052;28;20049;-60
2021/12/06 03:25:32;;;;;;;5.18;3.63;;;19.70;51.60;;;;;;5012463;28;20474;-60
2021/12/06 03:28:00;;;;;;;5.07;3.90;;;19.70;51.60;;;;;;5012217;28;20092;-60
2021/12/06 03:30:26;;;;;;;5.63;3.80;;;19.70;51.60;;;;;;5011440;28;20498;-60
2021/12/06 03:32:51;;;;;;;6.18;4.18;;;19.70;51.60;;;;;;5012664;28;20176;-60
2021/12/06 03:35:17;;;;;;;6.68;4.13;;;19.70;51.60;;;;;;5014720;28;20042;-60
2021/12/06 03:37:42;;;;;;;5.53;4.05;;;19.80;51.50;;;;;;5014027;28;20057;-60
2021/12/06 03:40:08;;;;;;;5.53;3.70;;;19.80;51.50;;;;;;5014763;28;20393;-60
2021/12/06 03:42:34;;;;;;;5.68;4.00;;;19.80;51.60;;;;;;5016461;28;20048;-60
2021/12/06 03:44:59;;;;;;;6.68;3.92;;;19.80;51.50;;;;;;5013117;28;20092;-60
2021/12/06 03:47:28;;;;;;;6.85;4.40;;;19.80;51.50;;;;;;5015831;28;20053;-60
2021/12/06 03:49:53;;;;;;;5.20;3.65;;;19.80;51.50;;;;;;5015705;28;20493;-60
2021/12/06 03:52:19;;;;;;;6.57;4.40;;;19.80;51.50;;;;;;5013875;28;20038;-60
2021/12/06 03:54:45;;;;;;;6.50;4.15;;;19.80;51.50;;;;;;5015421;28;20404;-60
2021/12/06 03:57:10;;;;;;;5.70;4.30;;;19.80;51.40;;;;;;5015868;28;20042;-60
2021/12/06 03:59:36;;;;;;;6.72;4.40;;;19.80;51.50;;;;;;5014553;28;20449;-60
2021/12/06 04:02:01;;;;;;;7.03;4.57;;;19.80;51.40;;;;;;5015670;28;20509;-60
2021/12/06 04:04:27;;;;;;;6.30;4.32;;;19.80;51.40;;;;;;5015544;28;20474;-60
2021/12/06 04:06:53;;;;;;;6.88;4.55;;;19.90;51.50;;;;;;5014699;28;20084;-60
2021/12/06 04:09:18;;;;;;;6.25;4.75;;;19.90;51.50;;;;;;5014022;28;20061;-60
2021/12/06 04:11:44;;;;;;;6.55;4.43;;;19.90;51.50;;;;;;5015268;28;20122;-60
2021/12/06 04:14:10;;;;;;;6.25;4.28;;;19.90;51.40;;;;;;5013125;28;20429;-60
2021/12/06 04:16:35;;;;;;;6.97;4.68;;;19.90;51.40;;;;;;5015131;28;20478;-60
2021/12/06 04:19:01;;;;;;;6.70;4.60;;;19.90;51.40;;;;;;5013279;28;20107;-60
2021/12/06 04:21:27;;;;;;;8.15;5.00;;;19.90;51.40;;;;;;5015478;28;20046;-60
2021/12/06 04:23:53;;;;;;;7.53;4.82;;;19.90;51.40;;;;;;5014827;28;20156;-60
2021/12/06 04:26:19;;;;;;;7.03;4.80;;;19.90;51.40;;;;;;5014649;28;20103;-60
2021/12/06 04:28:48;;;;;;;10.00;5.55;;;19.90;51.40;;;;;;5014829;28;20046;-60
2021/12/06 04:31:15;;;;;;;6.63;4.72;;;19.90;51.30;;;;;;5014769;28;20529;-60
2021/12/06 04:33:40;;;;;;;7.30;5.07;;;19.90;51.30;;;;;;5012808;28;20046;-60
2021/12/06 04:36:06;;;;;;;8.30;5.18;;;19.90;51.30;;;;;;5015045;28;20049;-60
2021/12/06 04:38:31;;;;;;;7.45;5.13;;;19.90;51.20;;;;;;5015138;28;20045;-60
2021/12/06 04:40:57;;;;;;;7.55;5.18;;;19.90;51.20;;;;;;5013936;28;20049;-60
2021/12/06 04:43:22;;;;;;;6.72;4.65;;;20.00;51.30;;;;;;5012608;28;20133;-60
2021/12/06 04:45:48;;;;;;;9.25;5.35;;;20.00;51.30;;;;;;5012624;28;20053;-60
2021/12/06 04:48:13;;;;;;;7.22;5.05;;;20.00;51.30;;;;;;5014068;28;20129;-60
2021/12/06 04:50:40;;;;;;;6.75;4.90;;;20.00;52.00;;;;;;5014831;28;20121;-60
2021/12/06 04:53:09;;;;;;;7.72;5.13;;;20.00;51.30;;;;;;5014746;28;20045;-60
2021/12/06 04:55:40;;;;;;;7.30;5.57;;;20.00;51.20;;;;;;5012512;28;20045;-60
2021/12/06 04:58:06;;;;;;;7.18;5.25;;;20.00;51.30;;;;;;5014662;28;20053;-60
2021/12/06 05:00:41;;;;;;;7.32;5.47;;;20.00;51.30;;;;;;5012138;28;20061;-60
2021/12/06 05:03:06;;;;;;;7.90;5.10;;;20.00;51.30;;;;;;5012232;28;20042;-60
2021/12/06 05:05:54;;;;;;;8.23;5.32;;;20.00;51.30;;;;;;5013612;28;20068;-60
2021/12/06 05:08:25;;;;;;;8.15;5.30;;;20.00;51.30;;;;;;5012371;28;20049;-60
2021/12/06 05:10:51;;;;;;;8.38;5.55;;;20.00;51.30;;;;;;5014053;28;20133;-63
2021/12/06 05:13:17;;;;;;;7.47;5.32;;;20.00;51.20;;;;;;5014141;28;20050;-63
2021/12/06 05:15:43;;;;;;;8.52;5.55;;;20.00;51.20;;;;;;5013248;28;20044;-62
2021/12/06 05:18:09;;;;;;;8.85;5.82;;;20.00;51.20;;;;;;5014170;28;20056;-62
2021/12/06 05:20:34;;;;;;;7.53;5.03;;;20.00;51.20;;;;;;5012797;28;20124;-63
2021/12/06 05:23:00;;;;;;;7.25;5.05;;;20.00;51.20;;;;;;5013090;28;20139;-60
2021/12/06 05:25:26;;;;;;;8.35;5.32;;;20.10;51.20;;;;;;5013974;28;20057;-60
2021/12/06 05:27:52;;;;;;;8.60;5.45;;;20.00;51.20;;;;;;5013546;28;20048;-60
2021/12/06 05:30:20;;;;;;;8.20;5.63;;;20.10;51.20;;;;;;5013192;28;20107;-60
2021/12/06 05:32:46;;;;;;;7.03;5.22;;;20.00;51.10;;;;;;5012586;28;20462;-60
2021/12/06 05:35:11;;;;;;;9.15;5.80;;;20.10;51.20;;;;;;5013941;28;20077;-60
2021/12/06 05:37:48;;;;;;;8.10;5.57;;;20.10;51.20;;;;;;5013208;28;20065;-60
2021/12/06 05:40:19;;;;;;;8.80;5.65;;;20.10;51.20;;;;;;5014006;28;20096;-60
2021/12/06 05:42:44;;;;;;;8.75;6.00;;;20.10;51.20;;;;;;5013796;28;20100;-60
2021/12/06 05:45:11;;;;;;;7.82;5.45;;;20.10;51.10;;;;;;5012554;28;20466;-60
2021/12/06 05:47:36;;;;;;;7.82;5.72;;;20.10;51.10;;;;;;5013578;28;20508;-60
2021/12/06 05:50:03;;;;;;;8.30;5.57;;;20.10;51.10;;;;;;5013252;28;20046;-60
2021/12/06 05:52:29;;;;;;;9.05;5.75;;;20.10;51.10;;;;;;5011715;28;20057;-60
2021/12/06 05:54:54;;;;;;;8.20;5.60;;;20.10;51.10;;;;;;5011576;28;20038;-60
2021/12/06 05:57:20;;;;;;;8.80;5.97;;;20.10;51.10;;;;;;5012340;28;20185;-60
2021/12/06 05:59:45;;;;;;;8.15;5.43;;;20.10;51.10;;;;;;5010683;28;20417;-60
2021/12/06 06:02:12;;;;;;;8.20;5.35;;;20.10;51.10;;;;;;5013694;28;20045;-60
2021/12/06 06:04:37;;;;;;;7.50;5.40;;;20.10;51.00;;;;;;5012414;28;20041;-60
2021/12/06 06:07:04;;;;;;;9.65;6.05;;;20.20;51.10;;;;;;5012086;28;20041;-60
2021/12/06 06:09:29;;;;;;;8.55;5.68;;;20.20;51.10;;;;;;5012250;28;20486;-60
2021/12/06 06:11:55;;;;;;;9.63;6.20;;;20.20;51.00;;;;;;5012397;28;20042;-60
2021/12/06 06:14:20;;;;;;;7.95;5.80;;;20.20;51.00;;;;;;5013408;28;20085;-60
2021/12/06 06:16:53;;;;;;;8.82;6.07;;;20.10;50.90;;;;;;5013026;28;20117;-60
2021/12/06 06:19:22;;;;;;;8.70;5.78;;;20.10;50.90;;;;;;5012496;28;20045;-60
2021/12/06 06:21:48;;;;;;;8.05;5.82;;;20.20;51.00;;;;;;5013049;28;20050;-60
2021/12/06 06:24:14;;;;;;;8.02;5.45;;;20.20;51.00;;;;;;5013170;28;20046;-60
2021/12/06 06:26:40;;;;;;;7.90;5.90;;;20.20;50.90;;;;;;5012402;28;20042;-60
2021/12/06 06:29:06;;;;;;;8.07;5.68;;;20.20;50.90;;;;;;5011805;28;20486;-62
2021/12/06 06:31:31;;;;;;;8.68;5.45;;;20.20;50.90;;;;;;5013134;28;20033;-62
2021/12/06 06:33:57;;;;;;;8.30;5.57;;;20.20;50.90;;;;;;5011971;28;20554;-62
2021/12/06 06:36:22;;;;;;;8.77;5.30;;;20.20;50.90;;;;;;5011853;28;20042;-62
2021/12/06 06:38:48;;;;;;;7.50;5.20;;;20.20;50.90;;;;;;5011636;28;20049;-62
2021/12/06 06:41:13;;;;;;;8.43;5.95;;;20.20;50.90;;;;;;5011016;28;20517;-62
2021/12/06 06:43:39;;;;;;;8.00;5.53;;;20.20;50.90;;;;;;5013032;28;20056;-63
2021/12/06 06:46:04;;;;;;;8.05;5.82;;;20.20;50.90;;;;;;5011102;28;20050;-62
2021/12/06 06:48:30;;;;;;;8.50;5.93;;;20.20;50.80;;;;;;5010734;28;20103;-62
2021/12/06 06:50:56;;;;;;;7.50;5.60;;;20.20;50.70;;;;;;5012719;28;20116;-63
2021/12/06 06:53:21;;;;;;;7.68;5.57;;;20.20;51.50;;;;;;5011412;28;20061;-62
2021/12/06 06:55:47;;;;;;;8.18;5.03;;;20.20;50.80;;;;;;5011613;28;20053;-63
2021/12/06 06:58:12;;;;;;;7.50;5.45;;;20.20;50.80;;;;;;5012874;28;20121;-62
2021/12/06 07:00:38;;;;;;;9.27;5.85;;;20.30;50.80;;;;;;5012305;28;20108;-63
2021/12/06 07:03:04;;;;;;;9.55;5.43;;;20.30;50.80;;;;;;5010417;28;20054;-62
2021/12/06 07:05:30;;;;;;;8.82;6.15;;;20.30;50.70;;;;;;5012597;28;20502;-62
2021/12/06 07:07:56;;;;;;;8.40;5.57;;;20.20;50.70;;;;;;5013784;28;20070;-62
2021/12/06 07:10:23;;;;;;;7.95;5.82;;;20.20;50.70;;;;;;5016531;28;20038;-62
2021/12/06 07:12:52;;;;;;;9.13;6.18;;;20.30;50.70;;;;;;5016030;28;20184;-62
2021/12/06 07:15:26;;;;;;;7.75;5.28;;;20.20;50.60;;;;;;5015325;28;20050;-62
2021/12/06 07:17:51;;;;;;;9.60;6.05;;;20.30;50.70;;;;;;5015278;28;20126;-62
2021/12/06 07:20:17;;;;;;;8.38;5.60;;;20.20;50.60;;;;;;5016424;28;20146;-62
2021/12/06 07:22:43;;;;;;;8.02;5.45;;;20.20;50.70;;;;;;5015377;28;20540;-63
2021/12/06 07:25:09;;;;;;;8.70;5.63;;;20.30;50.70;;;;;;5016235;28;20071;-63
2021/12/06 07:27:34;;;;;;;8.77;5.43;;;20.20;50.50;;;;;;5016311;28;20145;-63
2021/12/06 07:30:00;;;;;;;9.95;5.30;;;20.20;50.50;;;;;;5014661;28;20050;-61
2021/12/06 07:32:26;;;;;;;7.50;4.88;;;20.30;50.60;;;;;;5016050;28;20041;-61
2021/12/06 07:34:51;;;;;;;8.07;5.53;;;20.30;50.60;;;;;;5015809;28;20152;-61
2021/12/06 07:37:17;;;;;;;10.68;5.70;;;20.30;50.60;;;;;;5014330;28;20120;-61
2021/12/06 07:39:43;;;;;;;9.15;6.05;;;20.30;50.60;;;;;;5015791;28;20504;-61
2021/12/06 07:42:12;;;;;;;7.43;5.53;;;20.30;50.60;;;;;;5014729;28;20112;-61
2021/12/06 07:44:41;;;;;;;9.18;5.90;;;20.30;50.60;;;;;;5014846;28;20046;-61
2021/12/06 07:47:07;;;;;;;10.30;5.05;;;20.30;50.60;;;;;;5014526;28;20069;-60
2021/12/06 07:49:33;;;;;;;8.55;5.70;;;20.30;50.60;;;;;;5014553;28;20057;-61
2021/12/06 07:51:58;;;;;;;9.30;5.55;;;20.30;50.60;;;;;;5014773;28;20046;-61
2021/12/06 07:54:24;;;;;;;9.27;6.35;;;20.30;50.70;;;;;;5017931;28;20045;-60
2021/12/06 07:56:49;;;;;;;10.38;5.82;;;20.30;50.70;;;;;;5033819;28;20052;-61
2021/12/06 07:59:15;;;;;;;7.63;5.53;;;20.30;50.80;;;;;;5034601;28;20057;-61
2021/12/06 08:01:40;;;;;;;9.00;5.70;;;20.40;51.00;;;;;;5034146;28;20057;-62
2021/12/06 08:04:06;;;;;;;8.40;5.38;;;20.30;51.10;;;;;;5034443;28;20425;-62
2021/12/06 08:06:32;;;;;;;9.07;5.10;;;20.40;51.30;;;;;;5035445;28;20033;-61
2021/12/06 08:08:57;;;;;;;8.57;5.43;;;20.30;51.40;;;;;;5033770;28;20557;-61
2021/12/06 08:11:24;;;;;;;8.60;5.30;;;20.40;51.50;;;;;;5022993;28;20041;-61
2021/12/06 08:13:51;;;;;;;8.52;5.38;;;20.40;51.60;;;;;;5013500;28;20053;-61
2021/12/06 08:16:18;;;;;;;7.63;5.15;;;20.40;52.30;;;;;;5014094;28;20176;-61
2021/12/06 08:18:46;;;;;;;7.93;5.75;;;20.30;51.70;;;;;;5013878;28;20042;-61
2021/12/06 08:21:13;;;;;;;8.95;5.55;;;20.40;51.90;;;;;;5014528;28;20052;-62
2021/12/06 08:23:38;;;;;;;8.00;5.63;;;20.40;51.90;;;;;;5014226;28;20493;-60
2021/12/06 08:26:05;;;;;;;7.88;5.22;;;20.40;52.00;;;;;;5014099;28;20046;-61
2021/12/06 08:28:32;;;;;;;9.98;4.70;;;20.40;52.10;;;;;;5014823;28;20069;-61
2021/12/06 08:30:57;;;;;;;9.82;5.50;;;20.40;52.10;;;;;;5014238;28;20048;-60
2021/12/06 08:33:23;;;;;;;9.43;5.20;;;20.50;52.30;;;;;;5014427;28;20132;-60
2021/12/06 08:35:52;;;;;;;10.50;5.15;;;20.40;52.20;;;;;;5014858;28;20045;-60
2021/12/06 08:38:17;;;;;;;8.00;5.45;;;20.40;52.30;;;;;;5014943;28;20112;-60
2021/12/06 08:40:43;;;;;;;8.60;5.50;;;20.50;52.30;;;;;;5017029;28;20418;-61
2021/12/06 08:43:16;;;;;;;8.23;5.55;;;20.50;52.40;;;;;;5022220;28;20038;-60
2021/12/06 08:45:42;;;;;;;8.32;5.60;;;20.50;52.40;;;;;;5023404;28;20044;-60
2021/12/06 08:48:07;;;;;;;7.85;4.97;;;20.40;52.30;;;;;;5024553;28;20053;-60
2021/12/06 08:50:33;;;;;;;7.72;5.10;;;20.50;52.40;;;;;;5013576;28;20141;-60
2021/12/06 08:52:59;;;;;;;8.40;5.00;;;20.50;52.50;;;;;;5013855;28;20042;-60
2021/12/06 08:55:24;;;;;;;7.78;4.80;;;20.50;52.50;;;;;;5013589;28;20038;-60
2021/12/06 08:57:50;;;;;;;9.23;5.53;;;20.50;52.40;;;;;;5015531;28;20134;-60
2021/12/06 09:00:20;;;;;;;13.35;6.20;;;20.50;51.70;;;;;;5023006;28;20126;-60
2021/12/06 09:02:45;;;;;;;11.80;5.78;;;20.50;51.50;;;;;;5020586;28;20049;-60
2021/12/06 09:05:11;;;;;;;8.73;5.63;;;20.50;51.50;;;;;;5029464;28;20155;-60
2021/12/06 09:07:37;;;;;;;9.82;5.80;;;20.50;51.40;;;;;;5031609;28;20120;-60
2021/12/06 09:10:04;;;;;;;9.40;6.38;;;20.50;51.30;;;;;;5031447;28;20413;-60
2021/12/06 09:12:29;;;;;;;10.07;6.40;;;20.50;51.30;;;;;;5033188;28;20434;-60
2021/12/06 09:14:57;;;;;;;9.80;6.50;;;20.50;51.20;;;;;;5030752;28;20075;-59
2021/12/06 09:17:23;;;;;;;9.80;6.82;;;20.50;51.10;;;;;;5032952;28;20064;-59
2021/12/06 09:19:49;;;;;;;10.82;7.15;;;20.50;51.10;;;;;;5031251;28;20037;-59
2021/12/06 09:22:14;;;;;;;14.88;7.47;;;20.50;50.90;;;;;;5032050;28;20050;-60
2021/12/06 09:24:40;;;;;;;12.27;7.38;;;20.50;50.80;;;;;;5029097;28;20449;-60
2021/12/06 09:27:06;;;;;;;10.32;7.32;;;20.50;50.80;;;;;;5015919;28;20048;-60
2021/12/06 09:29:33;;;;;;;10.90;7.90;;;20.50;50.80;;;;;;5028799;28;20046;-60
2021/12/06 09:32:00;;;;;;;11.00;7.25;;;20.50;50.80;;;;;;5032391;28;20068;-60
2021/12/06 09:34:27;;;;;;;11.40;7.53;;;20.50;50.80;;;;;;5032703;28;20046;-60
2021/12/06 09:36:53;;;;;;;9.88;7.10;;;20.50;50.90;;;;;;5031642;28;20096;-61
2021/12/06 09:39:18;;;;;;;10.50;7.32;;;20.50;50.90;;;;;;5032874;28;20045;-60
2021/12/06 09:41:44;;;;;;;12.82;7.47;;;20.50;50.90;;;;;;5032251;28;20100;-60
2021/12/06 09:44:10;;;;;;;10.07;6.95;;;20.50;51.00;;;;;;5031941;28;20044;-60
2021/12/06 09:46:37;;;;;;;11.88;7.43;;;20.50;51.00;;;;;;5028042;28;20049;-61
2021/12/06 09:49:13;;;;;;;14.55;8.05;;;20.60;51.00;;;;;;5021630;28;20436;-60
2021/12/06 09:51:40;;;;;;;12.82;7.88;;;20.60;51.00;;;;;;5022559;28;20091;-60
2021/12/06 09:54:06;;;;;;;12.02;8.27;;;20.60;51.00;;;;;;5024054;28;20485;-60
2021/12/06 09:56:34;;;;;;;11.45;7.63;;;20.60;50.90;;;;;;5034992;28;20038;-60
2021/12/06 09:59:01;;;;;;;10.88;7.30;;;20.60;50.90;;;;;;5020842;28;20069;-60
2021/12/06 10:01:35;;;;;;;11.00;7.03;;;20.60;50.80;;;;;;4991864;28;1016159;-61
2021/12/06 10:04:01;;;;;;;11.63;7.38;;;20.60;50.70;;;;;;5031722;28;20536;-60
2021/12/06 10:06:27;;;;;;;10.60;6.75;;;20.60;50.60;;;;;;5032822;28;20072;-61
2021/12/06 10:08:53;;;;;;;10.48;6.80;;;20.60;50.50;;;;;;5032708;28;20048;-61
2021/12/06 10:11:20;;;;;;;9.25;6.75;;;20.60;50.40;;;;;;5032492;28;20049;-64
2021/12/06 10:13:46;;;;;;;11.90;7.82;;;20.60;50.40;;;;;;5031378;28;20041;-66
2021/12/06 10:16:11;;;;;;;9.40;6.97;;;20.60;50.30;;;;;;5030667;28;20041;-69
2021/12/06 10:18:37;;;;;;;10.43;6.53;;;20.60;50.30;;;;;;5032001;28;20477;-62
2021/12/06 10:21:03;;;;;;;11.35;7.28;;;20.70;50.30;;;;;;5032460;28;20508;-62
2021/12/06 10:23:29;;;;;;;10.80;7.40;;;20.70;50.40;;;;;;5031784;28;20049;-65
2021/12/06 10:25:55;;;;;;;13.20;6.85;;;20.70;50.40;;;;;;5032130;28;20037;-60
2021/12/06 10:28:23;;;;;;;9.95;6.63;;;20.70;50.40;;;;;;5033020;28;20046;-63
2021/12/06 10:30:51;;;;;;;11.05;6.93;;;20.70;50.50;;;;;;5032242;28;20164;-64
2021/12/06 10:33:19;;;;;;;9.73;6.20;;;20.70;50.50;;;;;;5030446;28;20049;-65
2021/12/06 10:35:47;;;;;;;8.95;6.32;;;20.70;50.50;;;;;;5031171;28;20048;-64
2021/12/06 10:38:21;;;;;;;11.18;6.70;;;20.70;50.60;;;;;;5031460;28;20057;-64
2021/12/06 10:40:47;;;;;;;9.18;6.18;;;20.70;50.60;;;;;;5030325;28;20041;-64
2021/12/06 10:43:13;;;;;;;8.98;6.05;;;20.70;50.70;;;;;;5030490;28;20052;-62
2021/12/06 10:45:44;;;;;;;10.00;5.97;;;20.70;50.70;;;;;;5031195;28;20543;-62
2021/12/06 10:48:19;;;;;;;10.13;5.95;;;20.70;50.80;;;;;;5032049;28;20099;-71
2021/12/06 10:50:58;;;;;;;9.88;6.05;;;20.70;50.80;;;;;;5032155;28;20501;-62
2021/12/06 10:53:37;;;;;;;;;;;20.70;50.90;;;;;;5012819;28;20125;-63
2021/12/06 10:56:03;;;;;;;10.00;6.05;;;20.70;51.00;;;;;;5012682;28;19925;-64
2021/12/06 10:58:29;;;;;;;10.13;5.78;;;20.70;50.90;;;;;;5013036;28;20049;-63
2021/12/06 11:01:09;;;;;;;8.40;5.65;;;20.70;51.10;;;;;;5014532;28;20397;-64
2021/12/06 11:03:36;;;;;;;8.90;5.40;;;20.70;51.10;;;;;;5032686;28;20095;-64
2021/12/06 11:06:10;;;;;;;7.78;5.20;;;20.70;51.20;;;;;;5030597;28;20378;-64
2021/12/06 11:08:37;;;;;;;8.30;5.80;;;20.70;51.20;;;;;;5031828;28;20042;-64
2021/12/06 11:11:06;;;;;;;8.20;5.10;;;20.70;51.20;;;;;;5032077;28;20073;-65
2021/12/06 11:13:35;;;;;;;;;;;20.70;51.20;;;;;;5031357;28;20046;-65
2021/12/06 11:16:10;;;;;;;7.78;5.00;;;20.70;51.20;;;;;;5031230;28;20052;-65
2021/12/06 11:18:48;;;;;;;8.55;5.53;;;20.80;51.30;;;;;;5031026;28;20098;-63
2021/12/06 11:21:21;;;;;;;7.78;4.80;;;20.70;51.20;;;;;;5031705;28;20111;-63
2021/12/06 11:24:06;;;;;;;9.70;5.50;;;20.70;51.00;;;;;;5030951;28;20080;-62
2021/12/06 11:26:32;;;;;;;8.57;5.10;;;20.70;50.90;;;;;;5032213;28;20122;-63
2021/12/06 11:29:11;;;;;;;9.07;4.53;;;20.80;51.00;;;;;;5031516;28;20049;-63
2021/12/06 11:31:37;;;;;;;8.30;5.05;;;20.80;50.90;;;;;;5032233;28;20400;-63
2021/12/06 11:34:04;;;;;;;6.78;5.15;;;20.70;50.90;;;;;;5028538;28;20053;-63
2021/12/06 11:36:31;;;;;;;7.20;4.80;;;20.70;50.80;;;;;;5031390;28;20060;-63
2021/12/06 11:39:09;;;;;;;8.00;5.10;;;20.80;50.80;;;;;;5031568;28;20072;-63
2021/12/06 11:41:35;;;;;;;7.40;4.75;;;20.80;50.80;;;;;;5032261;28;20501;-63
2021/12/06 11:44:15;;;;;;;8.90;4.68;;;20.80;50.90;;;;;;5029899;28;20065;-63
2021/12/06 11:46:41;;;;;;;8.27;4.63;;;20.80;51.60;;;;;;5031971;28;20041;-62
2021/12/06 11:49:20;;;;;;;8.15;4.50;;;20.70;50.80;;;;;;5031967;28;20046;-63
2021/12/06 11:51:46;;;;;;;7.18;4.65;;;20.80;50.90;;;;;;5030519;28;20116;-63
2021/12/06 11:54:12;;;;;;;7.07;4.75;;;20.70;50.80;;;;;;5027326;28;20184;-63
2021/12/06 11:56:44;;;;;;;7.07;4.65;;;20.70;50.90;;;;;;5033409;28;20107;-64
2021/12/06 11:59:09;;;;;;;7.68;4.57;;;20.70;50.90;;;;;;5034735;28;20058;-63
2021/12/06 12:01:40;;;;;;;8.63;4.93;;;20.70;50.90;;;;;;5034881;28;20053;-63
2021/12/06 12:04:18;;;;;;;9.68;5.18;;;20.70;50.90;;;;;;5034581;28;20100;-63
2021/12/06 12:07:00;;;;;;;8.63;5.10;;;20.70;50.80;;;;;;5034824;28;20436;-63
2021/12/06 12:09:30;;;;;;;9.02;5.07;;;20.80;50.80;;;;;;5035403;28;20037;-64
2021/12/06 12:12:13;;;;;;;8.45;5.13;;;20.80;50.80;;;;;;5034391;28;20045;-64
2021/12/06 12:14:46;;;;;;;7.53;4.60;;;20.80;50.70;;;;;;5035211;28;20053;-63
2021/12/06 12:17:16;;;;;;;7.65;5.10;;;20.70;50.70;;;;;;5035055;28;20034;-63
2021/12/06 12:19:42;;;;;;;7.72;4.50;;;20.80;50.70;;;;;;5049803;28;20440;-63
2021/12/06 12:22:08;;;;;;;7.15;4.43;;;20.80;50.70;;;;;;5050459;28;20393;-63
2021/12/06 12:24:36;;;;;;;7.80;4.50;;;20.80;50.60;;;;;;5033324;28;20045;-63
2021/12/06 12:27:10;;;;;;;6.93;4.03;;;20.80;50.60;;;;;;5034974;28;20045;-64
2021/12/06 12:29:35;;;;;;;7.82;4.88;;;20.80;50.60;;;;;;5049386;28;20064;-63
2021/12/06 12:32:04;;;;;;;8.15;4.93;;;20.80;50.60;;;;;;5032745;28;20050;-64
2021/12/06 12:34:31;;;;;;;;;;;20.80;50.60;;;;;;5034016;28;20128;-64
2021/12/06 12:36:57;;;;;;;7.13;4.53;;;20.80;50.60;;;;;;5050196;28;19928;-63
2021/12/06 12:39:23;;;;;;;7.38;4.63;;;20.80;50.60;;;;;;5032732;28;20041;-64
2021/12/06 12:41:51;;;;;;;5.30;3.72;;;20.80;50.60;;;;;;5034286;28;20045;-63
2021/12/06 12:44:16;;;;;;;7.05;4.45;;;20.80;50.50;;;;;;5034697;28;20442;-63
2021/12/06 12:46:44;;;;;;;6.35;3.90;;;20.80;50.50;;;;;;5033430;28;20128;-63
2021/12/06 12:49:14;;;;;;;7.38;4.30;;;20.80;50.60;;;;;;5034838;28;20041;-63
2021/12/06 12:51:46;;;;;;;7.10;4.03;;;20.80;50.30;;;;;;5034720;28;20563;-64
2021/12/06 12:54:17;;;;;;;6.57;4.15;;;20.80;50.30;;;;;;5033904;28;20090;-64
2021/12/06 12:56:55;;;;;;;7.38;3.95;;;20.80;50.30;;;;;;5034227;28;20045;-63
2021/12/06 12:59:21;;;;;;;;;;;20.80;50.30;;;;;;5035112;28;20041;-63